Bangkok (Don Mueang), Thailand

2:15 PM ICT on February 01, 2015 (GMT +0700)
Khu Khot | Change Station
CLOSE
Current Station
Personal Weather Station
Location: Pathum Thani, PATHUM THANI
Elevation: 15 ft
Nearby Weather Stations

Elev 15 ft 13.96 °N, 100.65 °E | Updated 1 minute ago

Clear
Clear
90.9 °F
Feels Like 94 °F
N
2.7
Wind Variable Wind from ENE
Gusts 5.4 mph

Today
High -- | Low -- °F
--% Chance of Precip.
Yesterday
High -- | Low -- °F
Precip. -- in
6:45 AM 6:17 PM
Waxing Gibbous, 93% visible
Pressure 29.92 in
Visibility -9999.0 miles
Clouds
Heat Index 94 °F
Dew Point 67 °F
Humidity 45%
Rainfall 0.00 in
Snow Depth Not available.
UV Not available.
Pollen Not available.
Air Quality Not available.
Flu Activity Not available.
METAR VTBD 010700Z 08011KT 040V120 CAVOK 30/16 Q1013 NOSIG

More Conditions Fewer Conditions

Pressure 29.92 in
Visibility -9999.0 miles
Clouds
Heat Index 94 °F
Dew Point 67 °F
Humidity 45%
Rainfall 0.00 in
Snow Depth Not available.
UV Not available.
Pollen Not available.
Air Quality Not available.
Flu Activity Not available.
METAR VTBD 010700Z 08011KT 040V120 CAVOK 30/16 Q1013 NOSIG

More Conditions Fewer Conditions

10-Day Weather Forecast

Almanac

Astronomy

Feb. 01, 2015 Rise Set
Actual Time
Civil Twilight
Nautical Twilight
Astronomical Twilight
Moon
Length of Visible Light
Length of Day
Tomorrow will be .
, % of the Moon is Illuminated

Today's Extremes

Country Highs Country Lows

Community

WunderPhotos

Upload Photos

1,792,325 photos uploaded!

WunderBlogs® & News

Nearby

Air Quality

  Air Quality AQ Index Pollutant
Not available.

Snow Depth

Station Depth Elevation

Earthquake Activity

City Distance Mag. Time & Date
Minimum magnitude displayed is 2.5.

Coastal Water Temperatures

Place Temperature

Nearby Weather Stations